Time;durP1;ratioP1;P1;durP2;ratioP2;P2;SDS_P1;SDS_P2;PMS_P1;PMS_P2;Temp;Humidity;BMP_temperature;BMP_pressure;BME280_temperature;BME280_humidity;BME280_pressure;Samples;Min_cycle;Max_cycle;Signal;HPM_P1;HPM_P2
2023/08/14 04:08:48;;;;;;;11.88;7.30;;;;;;;18.59;97.70;100997.91;5606462;31;79775;-63
2023/08/14 04:11:50;;;;;;;12.05;6.97;;;;;;;18.51;94.04;101001.44;5589382;31;33336;-64
2023/08/14 04:14:53;;;;;;;10.05;7.07;;;;;;;18.64;89.34;101002.38;5613503;31;33535;-64
2023/08/14 04:17:55;;;;;;;9.75;6.82;;;;;;;18.74;89.74;100996.66;5609947;31;34345;-64
2023/08/14 04:20:58;;;;;;;8.45;7.00;;;;;;;18.80;87.79;101010.88;5603196;31;33609;-64
2023/08/14 04:24:00;;;;;;;8.07;6.90;;;;;;;18.86;86.58;101012.31;5621287;31;33524;-64
2023/08/14 04:27:03;;;;;;;9.50;6.80;;;;;;;18.93;88.00;101018.06;5623188;31;34200;-64
2023/08/14 04:30:06;;;;;;;11.12;6.62;;;;;;;18.91;87.97;101020.31;5623131;31;33488;-64
2023/08/14 04:33:09;;;;;;;11.10;6.60;;;;;;;18.91;93.89;101014.88;5622956;31;34309;-64
2023/08/14 04:36:12;;;;;;;10.93;6.62;;;;;;;19.03;86.92;101012.28;5622630;31;33176;-64
2023/08/14 04:39:15;;;;;;;9.40;7.18;;;;;;;19.05;90.59;101015.50;5622799;31;33419;-64
2023/08/14 04:42:17;;;;;;;9.35;7.05;;;;;;;19.09;89.12;101018.38;5622826;31;34428;-64
2023/08/14 04:45:21;;;;;;;10.93;7.70;;;;;;;19.16;99.37;101016.75;5621589;31;34396;-64
2023/08/14 04:48:23;;;;;;;9.32;7.15;;;;;;;19.09;94.17;101013.72;5622768;31;33805;-64
2023/08/14 04:51:26;;;;;;;10.20;6.90;;;;;;;19.19;88.52;101009.87;5621419;31;33671;-64
2023/08/14 04:54:29;;;;;;;14.38;7.22;;;;;;;19.20;91.76;101011.47;5602933;31;34439;-64
2023/08/14 04:57:31;;;;;;;13.00;6.82;;;;;;;19.31;87.95;101011.94;5602423;31;33631;-64
2023/08/14 05:00:34;;;;;;;8.88;7.03;;;;;;;19.30;95.08;101010.31;5602673;31;33266;-64
2023/08/14 05:03:37;;;;;;;14.18;7.28;;;;;;;19.38;89.23;101004.88;5614940;31;34247;-64
2023/08/14 05:06:40;;;;;;;14.05;7.05;;;;;;;19.46;90.61;101012.19;5622222;31;34267;-64
2023/08/14 05:09:43;;;;;;;13.77;7.70;;;;;;;19.50;88.73;101012.34;5620653;31;33709;-65
2023/08/14 05:12:46;;;;;;;13.57;7.40;;;;;;;19.61;89.53;101016.31;5593563;31;33582;-64
2023/08/14 05:15:50;;;;;;;13.88;6.90;;;;;;;19.71;85.28;101020.66;5622795;31;34439;-64
2023/08/14 05:19:09;;;;;;;13.45;6.30;;;;;;;19.85;93.39;101023.16;5613796;31;33610;-64
2023/08/14 05:22:11;;;;;;;14.48;7.05;;;;;;;19.95;87.88;101022.78;5603486;31;33230;-64
2023/08/14 05:25:14;;;;;;;25.05;7.78;;;;;;;20.11;87.13;101026.53;5589442;31;33644;-64
2023/08/14 05:28:16;;;;;;;33.22;22.70;;;;;;;20.27;87.21;101024.03;5593239;31;33748;-64
2023/08/14 05:31:19;;;;;;;16.40;11.93;;;;;;;20.47;97.17;101019.75;5589243;31;34887;-64
2023/08/14 05:34:21;;;;;;;8.38;6.62;;;;;;;20.68;90.53;101027.94;5589399;31;34199;-64
2023/08/14 05:37:24;;;;;;;12.55;5.57;;;;;;;20.91;87.11;101030.34;5589251;31;33564;-64
2023/08/14 05:40:27;;;;;;;8.77;5.80;;;;;;;21.16;83.44;101028.47;5588849;31;33627;-64
2023/08/14 05:43:29;;;;;;;9.25;5.80;;;;;;;21.35;82.57;101031.53;5588363;31;33560;-64
2023/08/14 05:46:32;;;;;;;13.00;6.72;;;;;;;21.55;80.52;101024.41;5589285;31;33658;-64
2023/08/14 05:49:34;;;;;;;20.27;7.82;;;;;;;21.68;74.41;101027.94;5598743;31;33673;-64
2023/08/14 05:52:36;;;;;;;8.20;6.22;;;;;;;21.76;75.75;101027.06;5609115;31;33796;-64
2023/08/14 05:55:41;;;;;;;7.82;6.10;;;;;;;21.88;78.22;101031.72;5608742;31;33569;-65
2023/08/14 05:58:43;;;;;;;13.27;6.00;;;;;;;21.97;76.08;101035.94;5601815;31;33364;-65
2023/08/14 06:01:46;;;;;;;7.57;6.57;;;;;;;22.13;79.51;101035.25;5588579;31;33534;-65
2023/08/14 06:04:48;;;;;;;7.03;5.43;;;;;;;22.38;85.02;101039.56;5597448;31;33950;-64
2023/08/14 06:07:52;;;;;;;7.03;5.93;;;;;;;22.51;81.60;101032.94;5607694;31;34416;-62
2023/08/14 06:10:55;;;;;;;10.13;5.85;;;;;;;22.63;82.10;101034.84;5578517;31;33568;-61
2023/08/14 06:13:57;;;;;;;12.40;6.00;;;;;;;22.66;77.34;101030.63;5587558;31;33715;-61
2023/08/14 06:16:59;;;;;;;8.15;6.22;;;;;;;22.69;76.14;101036.22;5602772;31;34270;-63
2023/08/14 06:20:02;;;;;;;9.15;6.03;;;;;;;22.73;70.53;101039.03;5599096;31;33573;-61
2023/08/14 06:23:05;;;;;;;8.27;6.00;;;;;;;22.82;71.53;101042.44;5577694;31;33652;-63
2023/08/14 06:26:07;;;;;;;10.85;5.90;;;;;;;22.92;72.03;101052.88;5584200;31;33388;-60
2023/08/14 06:29:09;;;;;;;11.07;5.53;;;;;;;23.02;69.86;101048.09;5608296;31;33200;-61
2023/08/14 06:32:12;;;;;;;8.50;5.62;;;;;;;23.12;74.95;101047.59;5596803;31;34207;-60
2023/08/14 06:35:14;;;;;;;11.90;6.50;;;;;;;23.14;68.57;101037.88;5576701;31;33017;-61
2023/08/14 06:38:16;;;;;;;9.05;5.75;;;;;;;23.27;71.36;101046.03;5568614;31;33659;-61
2023/08/14 06:41:19;;;;;;;6.72;5.10;;;;;;;23.26;67.52;101055.38;5570727;31;33787;-61
2023/08/14 06:44:21;;;;;;;10.45;6.07;;;;;;;23.32;70.09;101053.97;5577370;31;33687;-60
2023/08/14 06:47:24;;;;;;;10.18;6.07;;;;;;;23.42;63.94;101053.47;5569084;32;34370;-61
2023/08/14 06:50:27;;;;;;;7.80;5.40;;;;;;;23.45;64.02;101042.62;5577881;31;34376;-60
2023/08/14 06:53:29;;;;;;;10.50;5.10;;;;;;;23.44;62.61;101049.25;5586324;31;33526;-61
2023/08/14 06:56:32;;;;;;;5.93;4.90;;;;;;;23.48;64.81;101049.34;5580034;31;34165;-63
2023/08/14 06:59:35;;;;;;;10.85;5.10;;;;;;;23.48;63.60;101056.72;5577262;31;34245;-61
2023/08/14 07:02:37;;;;;;;8.02;5.72;;;;;;;23.53;66.12;101059.22;5588086;31;33827;-61
2023/08/14 07:05:39;;;;;;;12.35;5.40;;;;;;;23.66;64.55;101058.00;5575075;31;33613;-61
2023/08/14 07:08:42;;;;;;;11.07;4.85;;;;;;;23.65;62.00;101054.47;5607428;31;33954;-61
2023/08/14 07:11:44;;;;;;;15.00;5.62;;;;;;;23.70;62.29;101069.06;5608315;31;33520;-62
2023/08/14 07:14:47;;;;;;;7.05;5.20;;;;;;;23.82;62.77;101058.03;5608112;31;33653;-61
2023/08/14 07:17:51;;;;;;;9.98;4.95;;;;;;;23.77;58.37;101058.28;5607834;31;33680;-61
2023/08/14 07:20:53;;;;;;;5.93;5.25;;;;;;;23.82;60.65;101058.81;5608081;31;33191;-61
2023/08/14 07:23:58;;;;;;;9.27;5.37;;;;;;;23.91;61.22;101053.97;5593083;31;33681;-64
2023/08/14 07:27:00;;;;;;;12.50;5.90;;;;;;;23.98;61.40;101047.06;5585515;31;33736;-61
2023/08/14 07:30:05;;;;;;;155.80;16.67;;;;;;;24.01;60.24;101052.62;5584155;31;33518;-61
2023/08/14 07:33:10;;;;;;;10.17;5.33;;;;;;;24.05;58.04;101053.50;5588809;31;34226;-61
2023/08/14 07:36:12;;;;;;;9.85;4.95;;;;;;;24.10;58.51;101050.47;5587623;31;33549;-61
2023/08/14 07:39:14;;;;;;;10.43;5.40;;;;;;;24.23;56.83;101048.44;5588051;31;33576;-61
2023/08/14 07:42:19;;;;;;;8.10;4.27;;;;;;;24.20;56.66;101049.12;5602473;31;33637;-60
2023/08/14 07:45:22;;;;;;;9.45;5.00;;;;;;;24.26;55.52;101047.72;5603129;31;33708;-61
2023/08/14 07:48:25;;;;;;;8.45;5.00;;;;;;;24.28;56.76;101050.91;5586726;31;34079;-61
2023/08/14 07:51:27;;;;;;;6.50;4.75;;;;;;;24.33;56.78;101047.09;5585295;31;33724;-61
2023/08/14 07:54:31;;;;;;;8.75;4.93;;;;;;;24.46;54.81;101039.56;5589501;31;33772;-61
2023/08/14 07:57:33;;;;;;;8.63;4.55;;;;;;;24.41;55.59;101043.41;5596006;31;33676;-61
2023/08/14 08:00:35;;;;;;;6.55;4.10;;;;;;;24.57;54.38;101040.63;5587183;31;34319;-61
2023/08/14 08:03:38;;;;;;;10.18;4.55;;;;;;;24.66;54.24;101037.66;5587634;31;33723;-61
2023/08/14 08:06:40;;;;;;;9.65;4.90;;;;;;;24.73;54.67;101041.31;5579018;31;33211;-61
2023/08/14 08:09:46;;;;;;;;;;;;;;;24.65;53.58;101036.84;5585792;31;35900;-61
2023/08/14 08:12:48;;;;;;;15.02;5.37;;;;;;;24.71;53.22;101043.66;5587227;31;34575;-61
2023/08/14 08:15:53;;;;;;;13.38;4.80;;;;;;;24.87;53.15;101042.75;5587103;31;34336;-61
2023/08/14 08:18:55;;;;;;;10.48;4.53;;;;;;;24.85;53.20;101043.13;5587494;31;33720;-60
2023/08/14 08:21:57;;;;;;;10.52;4.75;;;;;;;24.97;53.07;101039.47;5589144;31;34412;-61
2023/08/14 08:25:00;;;;;;;9.60;4.40;;;;;;;24.88;53.25;101050.63;5586860;31;33782;-60
2023/08/14 08:28:02;;;;;;;11.23;4.40;;;;;;;24.98;53.27;101043.78;5586744;31;33692;-61
2023/08/14 08:31:04;;;;;;;8.32;4.32;;;;;;;25.11;53.40;101056.19;5585576;31;34280;-61
2023/08/14 08:34:07;;;;;;;7.93;4.40;;;;;;;25.10;52.22;101046.38;5569343;31;34388;-60
2023/08/14 08:37:09;;;;;;;6.53;4.07;;;;;;;25.08;51.83;101045.94;5567547;32;33748;-61
2023/08/14 08:40:12;;;;;;;6.65;4.20;;;;;;;25.12;52.47;101043.28;5574314;31;34418;-61
2023/08/14 08:43:15;;;;;;;8.32;4.40;;;;;;;25.18;52.91;101048.13;5599092;31;33792;-60
2023/08/14 08:46:22;;;;;;;8.85;4.55;;;;;;;25.16;54.18;101041.41;5586412;31;33660;-61
2023/08/14 08:49:24;;;;;;;6.95;4.50;;;;;;;25.29;52.69;101046.34;5569955;31;34431;-61
2023/08/14 08:52:32;;;;;;;17.02;5.55;;;;;;;25.48;51.35;101047.47;5593481;31;33744;-61
2023/08/14 08:55:36;;;;;;;15.38;5.00;;;;;;;25.38;53.25;101048.88;5581440;31;34071;-60
2023/08/14 08:58:39;;;;;;;11.50;4.20;;;;;;;25.39;52.35;101046.91;5585275;31;34286;-61
2023/08/14 09:01:42;;;;;;;14.70;4.47;;;;;;;25.61;51.61;101050.84;5603339;31;33743;-61
2023/08/14 09:04:45;;;;;;;6.32;4.00;;;;;;;25.66;52.36;101045.84;5586440;31;34341;-60
2023/08/14 09:07:47;;;;;;;19.37;4.55;;;;;;;25.77;50.99;101040.53;5589654;31;33652;-61
2023/08/14 09:10:50;;;;;;;10.80;4.10;;;;;;;25.71;52.33;101042.78;5589214;31;33601;-61
2023/08/14 09:13:53;;;;;;;7.47;3.37;;;;;;;25.72;51.49;101038.88;5589299;31;34332;-61
2023/08/14 09:16:57;;;;;;;10.45;3.95;;;;;;;25.88;49.60;101027.00;5601704;31;33617;-61
2023/08/14 09:20:00;;;;;;;7.32;3.70;;;;;;;26.01;51.09;101031.91;5592300;31;33701;-61
2023/08/14 09:23:12;;;;;;;12.05;4.15;;;;;;;26.00;50.68;101024.03;5606030;31;34350;-61
2023/08/14 09:26:14;;;;;;;21.83;4.35;;;;;;;26.12;50.51;101025.78;5591934;31;34448;-61
2023/08/14 09:29:17;;;;;;;11.70;3.78;;;;;;;26.06;49.84;101014.34;5602835;31;33520;-61
2023/08/14 09:32:24;;;;;;;22.15;5.80;;;;;;;26.12;49.21;101018.31;5593720;31;33715;-61
2023/08/14 09:35:26;;;;;;;15.90;4.07;;;;;;;26.29;49.58;101013.44;5581280;31;34345;-61
2023/08/14 09:38:31;;;;;;;10.02;3.60;;;;;;;26.27;48.75;101007.56;5587644;31;33594;-61
2023/08/14 09:41:35;;;;;;;9.57;3.70;;;;;;;26.37;48.10;101015.16;5588900;31;33717;-61
2023/08/14 09:44:37;;;;;;;7.12;3.58;;;;;;;26.47;47.44;101018.06;5588602;31;34289;-61
2023/08/14 09:47:42;;;;;;;9.40;3.70;;;;;;;26.48;47.01;101018.84;5589151;31;33311;-61
2023/08/14 09:50:50;;;;;;;8.77;3.83;;;;;;;26.46;47.77;101016.44;5588941;31;33769;-61
2023/08/14 09:53:56;;;;;;;8.57;3.72;;;;;;;26.54;48.25;101017.34;5588300;31;34456;-61
2023/08/14 09:56:59;;;;;;;;;;;;;;;26.40;48.08;101012.44;5592401;31;33865;-61
2023/08/14 10:00:03;;;;;;;10.88;3.87;;;;;;;26.53;48.05;101007.53;5588462;31;33766;-62
2023/08/14 10:03:07;;;;;;;8.32;4.15;;;;;;;26.57;48.71;101015.81;5608384;31;34231;-61
2023/08/14 10:06:11;;;;;;;7.68;3.45;;;;;;;26.54;47.52;101009.09;5608339;31;33619;-61
2023/08/14 10:09:14;;;;;;;4.97;3.33;;;;;;;26.52;48.67;101018.88;5605949;31;34276;-61
2023/08/14 10:12:20;;;;;;;11.90;3.90;;;;;;;26.60;47.89;101017.81;5602499;31;33598;-61
2023/08/14 10:15:29;;;;;;;6.25;3.97;;;;;;;26.63;48.31;101009.63;5603484;31;33400;-60
2023/08/14 10:18:38;;;;;;;5.00;3.75;;;;;;;26.73;46.73;101002.66;5608530;31;33704;-61
2023/08/14 10:21:42;;;;;;;4.35;3.62;;;;;;;26.73;48.23;101004.62;5599012;31;34431;-61
2023/08/14 10:24:45;;;;;;;13.80;4.00;;;;;;;26.66;45.51;101006.13;5587027;31;33650;-61
2023/08/14 10:27:49;;;;;;;8.57;3.62;;;;;;;26.75;47.66;100996.78;5581351;31;34069;-62
2023/08/14 10:30:52;;;;;;;4.22;3.50;;;;;;;26.75;47.66;100999.53;5569458;32;34083;-61
2023/08/14 10:33:56;;;;;;;7.30;3.37;;;;;;;26.90;45.16;100993.81;5569021;31;33704;-63
2023/08/14 10:37:00;;;;;;;5.70;3.00;;;;;;;27.21;44.95;100993.75;5596151;31;33419;-61
2023/08/14 10:40:21;;;;;;;4.65;3.62;;;;;;;27.16;45.03;100983.88;5608132;31;34387;-61
2023/08/14 10:43:27;;;;;;;7.53;3.00;;;;;;;26.98;44.47;100985.63;5608767;31;33632;-61
2023/08/14 10:46:29;;;;;;;9.60;3.78;;;;;;;26.96;44.61;100988.78;5608431;31;34323;-61
2023/08/14 10:49:44;;;;;;;9.25;3.55;;;;;;;27.12;45.28;100977.53;5608581;31;34290;-64
2023/08/14 10:52:48;;;;;;;7.35;3.40;;;;;;;27.13;44.38;100976.37;5607844;31;34292;-64
2023/08/14 10:55:51;;;;;;;6.65;4.07;;;;;;;27.07;43.95;100970.41;5608124;31;34123;-65
2023/08/14 10:58:54;;;;;;;6.10;3.97;;;;;;;27.19;44.69;100972.13;5609013;31;34275;-65
2023/08/14 11:02:13;;;;;;;6.47;3.45;;;;;;;27.22;44.71;100962.28;5608546;31;34308;-65
2023/08/14 11:05:17;;;;;;;10.38;4.05;;;;;;;27.20;45.13;100951.69;5608567;31;33756;-65
2023/08/14 11:08:21;;;;;;;5.53;3.40;;;;;;;27.25;44.92;100956.84;5608325;31;34371;-65
2023/08/14 11:11:23;;;;;;;7.50;3.53;;;;;;;27.15;43.57;100952.84;5608213;31;34357;-64
2023/08/14 11:14:26;;;;;;;5.30;3.70;;;;;;;27.25;44.56;100950.53;5608483;31;34266;-65
2023/08/14 11:17:29;;;;;;;5.78;3.37;;;;;;;27.47;44.44;100949.53;5607700;31;34261;-65
2023/08/14 11:20:32;;;;;;;3.78;3.15;;;;;;;27.54;43.81;100946.84;5608097;31;33628;-65
2023/08/14 11:23:34;;;;;;;7.78;3.75;;;;;;;27.38;44.51;100943.56;5608547;31;33669;-65
2023/08/14 11:26:37;;;;;;;5.30;3.85;;;;;;;27.31;45.53;100935.25;5607921;31;33808;-65
2023/08/14 11:29:39;;;;;;;11.48;3.53;;;;;;;27.33;45.22;100938.44;5608649;31;33778;-65
2023/08/14 11:32:44;;;;;;;;;;;;;;;27.26;45.14;100938.37;5608230;31;33653;-64
2023/08/14 11:35:47;;;;;;;7.93;3.67;;;;;;;27.31;45.55;100936.03;5608233;31;34257;-65
2023/08/14 11:38:51;;;;;;;7.12;4.10;;;;;;;27.44;45.31;100935.75;5608363;31;33297;-65
2023/08/14 11:41:53;;;;;;;4.90;3.53;;;;;;;27.59;45.92;100940.97;5608087;31;34443;-65
2023/08/14 11:44:56;;;;;;;4.60;3.55;;;;;;;27.51;44.99;100944.84;5608112;31;33706;-65
2023/08/14 11:47:58;;;;;;;4.78;3.60;;;;;;;27.33;44.60;100932.91;5607999;31;33902;-65
2023/08/14 11:51:02;;;;;;;5.07;3.67;;;;;;;27.52;44.02;100929.91;5607996;31;33515;-64
2023/08/14 11:54:05;;;;;;;10.52;4.00;;;;;;;27.71;43.28;100925.31;5607976;31;34346;-64
2023/08/14 11:57:08;;;;;;;5.35;3.58;;;;;;;27.68;44.28;100923.31;5608092;31;33639;-64
2023/08/14 12:00:13;;;;;;;6.05;3.55;;;;;;;27.67;44.60;100925.28;5606929;31;33747;-65
2023/08/14 12:03:17;;;;;;;5.22;3.40;;;;;;;27.68;44.20;100921.34;5607514;31;33214;-65
2023/08/14 12:06:22;;;;;;;6.72;3.72;;;;;;;27.67;43.65;100916.25;5607546;31;34255;-65
2023/08/14 12:09:27;;;;;;;7.32;3.83;;;;;;;27.72;43.07;100916.69;5607556;31;33687;-65
2023/08/14 12:12:30;;;;;;;6.70;4.00;;;;;;;27.74;43.27;100913.53;5607621;31;34376;-65
2023/08/14 12:15:32;;;;;;;7.35;3.85;;;;;;;27.73;43.84;100912.75;5607406;31;33699;-65
2023/08/14 12:18:37;;;;;;;10.98;4.03;;;;;;;27.83;44.23;100919.53;5607722;31;33767;-65
2023/08/14 12:21:40;;;;;;;10.02;3.95;;;;;;;27.81;44.21;100914.38;5607655;31;33854;-64
2023/08/14 12:24:43;;;;;;;5.45;3.55;;;;;;;27.97;43.19;100918.81;5607117;31;34364;-65
2023/08/14 12:27:46;;;;;;;16.90;5.60;;;;;;;27.86;42.74;100905.75;5607562;31;34358;-65
2023/08/14 12:30:49;;;;;;;5.60;3.70;;;;;;;27.77;44.30;100910.03;5610130;31;34182;-65
2023/08/14 12:33:51;;;;;;;49.20;5.75;;;;;;;27.84;42.90;100902.59;5609726;31;33642;-64
2023/08/14 12:37:06;;;;;;;16.12;4.25;;;;;;;27.76;44.46;100909.25;5610070;31;34384;-65
2023/08/14 12:40:10;;;;;;;6.97;3.55;;;;;;;27.81;44.91;100899.81;5609625;31;34449;-65
2023/08/14 12:43:12;;;;;;;9.23;4.28;;;;;;;27.72;43.66;100893.84;5609825;31;34374;-65
2023/08/14 12:46:15;;;;;;;11.27;4.15;;;;;;;27.69;44.48;100892.66;5609571;31;34426;-65
2023/08/14 12:49:17;;;;;;;16.45;4.43;;;;;;;27.86;44.46;100894.75;5609981;31;34292;-65
2023/08/14 12:52:20;;;;;;;58.03;8.23;;;;;;;27.94;44.84;100903.81;5609736;31;34332;-65
2023/08/14 12:55:22;;;;;;;26.37;4.82;;;;;;;27.83;45.29;100900.22;5610053;31;33723;-65
2023/08/14 12:58:29;;;;;;;48.72;5.93;;;;;;;27.75;45.71;100891.13;5609618;31;33627;-65
2023/08/14 13:01:32;;;;;;;9.10;4.20;;;;;;;27.75;45.99;100899.38;5609890;31;34296;-65
2023/08/14 13:04:35;;;;;;;9.30;4.15;;;;;;;27.84;44.19;100888.03;5609506;31;34382;-65
2023/08/14 13:07:37;;;;;;;23.15;4.53;;;;;;;27.80;43.32;100881.72;5609568;31;33690;-61
2023/08/14 13:10:40;;;;;;;15.95;3.90;;;;;;;28.02;42.62;100875.13;5609550;31;33660;-62
2023/08/14 13:13:42;;;;;;;13.65;4.05;;;;;;;28.05;43.31;100881.84;5609356;31;34325;-62
2023/08/14 13:16:45;;;;;;;9.57;3.75;;;;;;;28.10;42.93;100884.22;5609294;31;33634;-62
2023/08/14 13:19:47;;;;;;;6.80;3.60;;;;;;;28.04;42.32;100877.50;5609791;31;33625;-62
2023/08/14 13:22:50;;;;;;;81.55;8.85;;;;;;;27.91;42.46;100882.56;5609402;31;33346;-62
2023/08/14 13:25:53;;;;;;;9.30;3.50;;;;;;;28.04;42.47;100872.75;5609303;31;33606;-62
2023/08/14 13:28:55;;;;;;;13.50;4.10;;;;;;;28.05;41.27;100870.81;5609397;31;33794;-62
2023/08/14 13:31:59;;;;;;;8.43;3.90;;;;;;;28.08;42.57;100868.09;5609270;31;33820;-62
2023/08/14 13:35:02;;;;;;;12.45;4.07;;;;;;;28.04;42.58;100861.75;5609291;31;33620;-62
2023/08/14 13:38:04;;;;;;;12.32;3.80;;;;;;;28.03;43.26;100859.38;5609331;31;33405;-62
2023/08/14 13:41:07;;;;;;;6.45;3.67;;;;;;;27.98;42.87;100859.75;5608925;31;34402;-62
2023/08/14 13:44:10;;;;;;;22.17;4.40;;;;;;;27.89;42.47;100856.59;5609314;31;34220;-62
2023/08/14 13:47:13;;;;;;;18.70;4.00;;;;;;;28.02;42.13;100861.38;5609018;31;33633;-62
2023/08/14 13:50:19;;;;;;;7.32;3.42;;;;;;;28.00;42.20;100849.94;5608966;31;33658;-62
2023/08/14 13:53:34;;;;;;;9.30;3.50;;;;;;;27.93;43.22;100852.66;5609029;31;33700;-62
2023/08/14 13:56:36;;;;;;;17.52;3.95;;;;;;;28.09;42.42;100850.34;5609044;31;33688;-62
2023/08/14 13:59:39;;;;;;;20.73;4.82;;;;;;;28.04;43.05;100855.44;5609087;31;33578;-62
2023/08/14 14:02:41;;;;;;;6.95;3.70;;;;;;;28.08;42.94;100848.00;5609168;31;33807;-63
2023/08/14 14:05:43;;;;;;;6.10;3.80;;;;;;;28.13;42.12;100849.59;5609106;31;33857;-62
2023/08/14 14:08:46;;;;;;;8.07;3.50;;;;;;;28.14;42.37;100840.13;5608714;31;33698;-62
2023/08/14 14:11:49;;;;;;;7.68;3.72;;;;;;;28.09;42.98;100833.81;5608973;31;33747;-62
2023/08/14 14:14:51;;;;;;;8.23;3.70;;;;;;;28.12;42.98;100834.22;5609018;31;33320;-64
2023/08/14 14:17:54;;;;;;;10.93;3.80;;;;;;;28.09;43.06;100833.81;5608937;31;34267;-62
2023/08/14 14:20:56;;;;;;;6.40;3.28;;;;;;;28.02;43.02;100831.06;5608912;31;34299;-62
2023/08/14 14:24:00;;;;;;;8.40;3.62;;;;;;;27.94;42.72;100820.37;5608643;31;33799;-62
2023/08/14 14:27:03;;;;;;;13.65;4.20;;;;;;;27.96;41.92;100824.31;5608830;31;33652;-62
2023/08/14 14:30:06;;;;;;;9.63;3.70;;;;;;;27.94;44.05;100825.88;5608540;31;33795;-62
2023/08/14 14:33:08;;;;;;;14.02;3.87;;;;;;;28.07;42.95;100827.13;5608918;31;33739;-62
2023/08/14 14:36:10;;;;;;;13.15;3.83;;;;;;;28.10;43.39;100827.13;5608610;31;34338;-62
2023/08/14 14:39:15;;;;;;;15.02;4.37;;;;;;;28.05;44.23;100826.72;5608407;31;33697;-62
2023/08/14 14:42:19;;;;;;;5.05;3.47;;;;;;;28.21;42.57;100823.59;5608122;31;33655;-62
2023/08/14 14:45:21;;;;;;;6.68;3.95;;;;;;;28.10;42.00;100821.59;5608578;31;33832;-62
2023/08/14 14:48:36;;;;;;;5.97;3.17;;;;;;;27.98;41.86;100826.69;5607936;31;33745;-62
2023/08/14 14:51:38;;;;;;;6.15;3.53;;;;;;;28.00;42.39;100824.34;5607295;31;34466;-62
2023/08/14 14:54:41;;;;;;;6.40;3.85;;;;;;;28.06;43.43;100822.78;5608142;31;33368;-62
2023/08/14 14:57:43;;;;;;;5.87;3.40;;;;;;;28.18;42.82;100827.13;5608468;31;33845;-62
